Aeroporto :
LOGIN :

Iscrizione | Disclaimer

   EN    FR    IT 

 










Sommario :    VFR   VFR Marginale   IFR   IFR Intensivo   IFR Molto Intensivo
Visibilità : 
Base nubi : 
>= 8 km
>= 3000ft
5 / 8 km
1000 / 3000 ft
1500m / 5 km
500 / 1000 ft
800 / 1500m
200 / 500 ft
< 800m
< 200 ft
Simboli :   Temporali  Nebbia  Neve Forte  Precipitazioni Forti  Vento > 20 kt
SIGMETs :   Varie  Temporali  Ghiacco  Turbolenza  Onda orograficha  Ceneri Vulcaniche






- Altitudine del aeroporto : 100 ft


EBDT - Schaffen

ULTIMO METAR :
  • 041555Z AUTO 12005KT 9999 FEW130/// SCT160/// 14/00 Q1022 BLU

METARs OBSOLETI :
  • 041525Z AUTO 17003KT 9999 FEW160/// 15/00 Q1022 BLU
  • 041455Z AUTO 14005KT 9999 FEW160/// 15/01 Q1023 BLU
  • 041425Z AUTO 14005KT 9999 FEW160/// 14/00 Q1023 BLU
  • 041416Z AUTO 14005KT 9999 FEW150/// 14/00 Q1023 BLU
  • 041405Z AUTO 13005KT 7000 FEW150/// 15/01 Q1023 WHT
  • 041355Z AUTO 16006KT 9999 FEW150/// 14/01 Q1023 BLU
  • 041325Z AUTO 16006KT 9999 FEW140/// BKN160/// BKN220/// 15/02 Q1023 BLU

Previsioni scadute.



MetMap, La meteo Aeronautica in un colpo d'occhio ! - Copyright ORBIFLY Dicembre 2007 - Disclaimer

ORBIFLY MET'MAP TEAM :

Programmazione e sviluppo : Alexandra Zaïnal
Concezione : Baudouin d'Aumeries
Aiuto per la programmazione : Marc-Olivier Méhu
Supporto tecnico e logistico : Manuel Goepfert
Aiuto per la traduzione : Arnaldo La Scala

Contatto : metmap@orbifly.com




FONTI E CREDITI :

   NOAA